Time;durP1;ratioP1;P1;durP2;ratioP2;P2;SDS_P1;SDS_P2;PMS_P1;PMS_P2;Temp;Humidity;BMP_temperature;BMP_pressure;BME280_temperature;BME280_humidity;BME280_pressure;Samples;Min_cycle;Max_cycle;Signal;HPM_P1;HPM_P2
2021/07/21 00:01:47;;;;;;;12.97;9.13;;;13.00;99.90;;;;;;4999179;28;20527;-53
2021/07/21 00:04:14;;;;;;;10.93;9.40;;;13.00;99.90;;;;;;4990648;28;20477;-49
2021/07/21 00:06:45;;;;;;;10.47;8.60;;;12.90;99.90;;;;;;4998290;28;20842;-50
2021/07/21 00:09:14;;;;;;;10.37;9.37;;;12.90;99.90;;;;;;4999069;28;20491;-52
2021/07/21 00:14:25;;;;;;;12.90;9.57;;;12.80;99.90;;;;;;4995834;28;20584;-50
2021/07/21 00:16:56;;;;;;;8.60;7.73;;;12.70;99.90;;;;;;4998958;28;20527;-50
2021/07/21 00:22:08;;;;;;;10.33;8.50;;;12.70;99.90;;;;;;4998690;28;20927;-51
2021/07/21 00:24:36;;;;;;;9.40;7.97;;;12.70;99.90;;;;;;4999014;28;20465;-50
2021/07/21 00:27:05;;;;;;;10.77;8.90;;;12.70;99.90;;;;;;4998686;28;20984;-56
2021/07/21 00:29:34;;;;;;;9.80;8.27;;;12.70;99.90;;;;;;4998948;28;20555;-56
2021/07/21 00:32:01;;;;;;;9.73;8.37;;;12.60;99.90;;;;;;4998624;28;20444;-50
2021/07/21 00:34:35;;;;;;;12.17;9.03;;;12.50;99.90;;;;;;4998839;28;20531;-53
2021/07/21 00:37:02;;;;;;;11.53;9.47;;;12.50;99.90;;;;;;4998626;28;20459;-50
2021/07/21 00:39:29;;;;;;;11.80;8.67;;;12.50;99.90;;;;;;4998794;28;20886;-48
2021/07/21 00:42:02;;;;;;;9.97;8.20;;;12.40;99.90;;;;;;4998593;28;20487;-49
2021/07/21 00:44:29;;;;;;;10.97;9.43;;;12.40;99.90;;;;;;4998666;28;20469;-51
2021/07/21 00:46:56;;;;;;;10.33;9.20;;;12.40;99.90;;;;;;4998069;28;20492;-51
2021/07/21 00:49:25;;;;;;;11.67;9.20;;;12.40;99.90;;;;;;4998757;28;20498;-53
2021/07/21 00:51:52;;;;;;;10.87;8.40;;;12.40;99.90;;;;;;4998091;28;20469;-52
2021/07/21 00:54:21;;;;;;;12.57;8.67;;;12.40;99.90;;;;;;4998063;28;20882;-55
2021/07/21 00:56:51;;;;;;;10.97;9.17;;;12.30;99.90;;;;;;4998104;28;20780;-55
2021/07/21 00:59:20;;;;;;;11.07;8.57;;;12.30;99.90;;;;;;4998614;28;20471;-53
2021/07/21 01:01:49;;;;;;;9.60;8.57;;;12.30;99.90;;;;;;4998564;28;20469;-51
2021/07/21 01:04:16;;;;;;;11.43;8.70;;;12.20;99.90;;;;;;4998445;28;20469;-55
2021/07/21 01:06:44;;;;;;;13.90;8.77;;;12.20;99.90;;;;;;4988817;28;20473;-52
2021/07/21 01:09:12;;;;;;;12.17;9.97;;;12.20;99.90;;;;;;4993981;28;20832;-50
2021/07/21 01:11:44;;;;;;;9.60;8.43;;;12.20;99.90;;;;;;4997196;28;20469;-50
2021/07/21 01:14:23;;;;;;;15.00;9.10;;;12.10;99.90;;;;;;4998248;28;20535;-47
2021/07/21 01:16:58;;;;;;;9.10;7.70;;;12.10;99.90;;;;;;4998092;28;20516;-53
2021/07/21 01:19:43;;;;;;;10.27;8.50;;;12.00;99.90;;;;;;4998476;28;20456;-50
2021/07/21 01:22:15;;;;;;;9.57;8.50;;;12.00;99.90;;;;;;4997727;28;20754;-47
2021/07/21 01:25:00;;;;;;;12.10;8.30;;;12.00;99.90;;;;;;4997824;28;20537;-53
2021/07/21 01:27:31;;;;;;;11.83;9.40;;;12.00;99.90;;;;;;4998260;28;20848;-51
2021/07/21 01:30:04;;;;;;;12.50;9.13;;;11.90;99.90;;;;;;4997809;28;20496;-54
2021/07/21 01:32:33;;;;;;;9.60;8.63;;;11.80;99.90;;;;;;4997764;28;20483;-48
2021/07/21 01:35:06;;;;;;;9.63;8.73;;;11.80;99.90;;;;;;4998119;28;20523;-51
2021/07/21 01:37:37;;;;;;;9.60;8.20;;;11.70;99.90;;;;;;4998398;28;20463;-54
2021/07/21 01:40:08;;;;;;;11.47;9.40;;;11.70;99.90;;;;;;4998022;28;20898;-54
2021/07/21 01:42:37;;;;;;;10.43;9.27;;;11.80;99.90;;;;;;4997597;28;20473;-53
2021/07/21 01:45:07;;;;;;;16.47;9.50;;;11.70;99.90;;;;;;4998083;28;20564;-51
2021/07/21 01:47:38;;;;;;;9.93;8.70;;;11.70;99.90;;;;;;4997393;28;20465;-55
2021/07/21 01:50:07;;;;;;;12.17;9.73;;;11.70;99.90;;;;;;4997356;28;20551;-52
2021/07/21 01:52:34;;;;;;;10.80;8.50;;;11.60;99.90;;;;;;4997222;28;20443;-54
2021/07/21 01:55:07;;;;;;;11.20;8.60;;;11.60;99.90;;;;;;4997862;28;20504;-54
2021/07/21 01:57:37;;;;;;;8.77;7.60;;;11.60;99.90;;;;;;4997121;28;20483;-49
2021/07/21 02:00:09;;;;;;;8.80;7.53;;;11.60;99.90;;;;;;4997917;28;20806;-51
2021/07/21 02:02:37;;;;;;;8.80;7.90;;;11.60;99.90;;;;;;4996220;28;20800;-53
2021/07/21 02:05:07;;;;;;;11.40;9.43;;;11.60;99.90;;;;;;4990198;28;20453;-50
2021/07/21 02:07:36;;;;;;;9.60;8.43;;;11.60;99.90;;;;;;4999204;28;20460;-53
2021/07/21 02:10:06;;;;;;;11.03;8.27;;;11.50;99.90;;;;;;5001384;28;20591;-57
2021/07/21 02:12:40;;;;;;;10.90;9.23;;;11.50;99.90;;;;;;5000999;28;20519;-57
2021/07/21 02:15:08;;;;;;;10.93;8.43;;;11.50;99.90;;;;;;5001564;28;20475;-53
2021/07/21 02:17:38;;;;;;;11.43;9.27;;;11.40;99.90;;;;;;5001166;28;20509;-52
2021/07/21 02:20:07;;;;;;;11.83;9.37;;;11.40;99.90;;;;;;5001461;28;20464;-51
2021/07/21 03:01:21;;;;;;;12.30;9.07;;;11.10;99.90;;;;;;4977986;28;20494;-51
2021/07/21 03:03:51;;;;;;;13.77;9.97;;;11.10;99.90;;;;;;4975919;28;20496;-56
2021/07/21 03:06:21;;;;;;;16.70;9.13;;;11.10;99.90;;;;;;4977810;28;20458;-54
2021/07/21 03:08:49;;;;;;;12.23;9.00;;;11.00;99.90;;;;;;4980933;28;20485;-55
2021/07/21 03:11:18;;;;;;;9.73;8.37;;;11.00;99.90;;;;;;4980636;28;20469;-53
2021/07/21 03:13:51;;;;;;;8.17;7.37;;;10.90;99.90;;;;;;4980523;28;20875;-51
2021/07/21 03:16:24;;;;;;;13.07;9.80;;;11.00;99.90;;;;;;4980744;28;20465;-54
2021/07/21 03:18:56;;;;;;;11.60;9.43;;;10.90;99.90;;;;;;4980245;28;20466;-56
2021/07/21 03:21:25;;;;;;;9.57;8.33;;;11.00;99.90;;;;;;4981184;28;20472;-55
2021/07/21 03:23:55;;;;;;;10.77;8.80;;;11.00;99.90;;;;;;4980636;28;20473;-56
2021/07/21 03:26:25;;;;;;;10.50;9.07;;;11.00;99.90;;;;;;4980470;28;20511;-57
2021/07/21 03:28:55;;;;;;;10.70;9.00;;;10.90;99.90;;;;;;4976628;28;20585;-57
2021/07/21 03:31:24;;;;;;;11.20;9.07;;;10.90;99.90;;;;;;4978991;28;20477;-57
2021/07/21 03:34:04;;;;;;;10.00;9.00;;;10.80;99.90;;;;;;4980425;28;20577;-56
2021/07/21 03:36:36;;;;;;;12.50;9.27;;;10.80;99.90;;;;;;4980284;28;20779;-53
2021/07/21 03:39:08;;;;;;;10.90;8.07;;;10.80;99.90;;;;;;4980485;28;20472;-57
2021/07/21 03:41:37;;;;;;;9.93;8.57;;;10.80;99.90;;;;;;4980368;28;20473;-51
2021/07/21 03:44:06;;;;;;;9.40;7.60;;;10.80;99.90;;;;;;4980751;28;20512;-55
2021/07/21 03:46:38;;;;;;;11.70;8.80;;;10.90;99.90;;;;;;4979741;28;20461;-57
2021/07/21 03:49:06;;;;;;;8.60;7.80;;;10.90;99.90;;;;;;4980513;28;20594;-57
2021/07/21 03:51:38;;;;;;;9.50;8.60;;;10.80;99.90;;;;;;4980413;28;20522;-56
2021/07/21 03:54:08;;;;;;;10.03;8.80;;;10.80;99.90;;;;;;4980105;28;20473;-53
2021/07/21 03:56:37;;;;;;;12.70;8.20;;;10.80;99.90;;;;;;5154816;23;20793;-57
2021/07/21 03:59:06;;;;;;;11.20;9.07;;;10.80;99.90;;;;;;4980358;28;20532;-57
2021/07/21 04:01:34;;;;;;;9.70;8.50;;;10.80;99.90;;;;;;4979693;28;20844;-57
2021/07/21 04:04:03;;;;;;;10.13;9.13;;;10.90;99.90;;;;;;4972386;28;20993;-56
2021/07/21 04:06:32;;;;;;;9.53;8.53;;;10.80;99.90;;;;;;4979549;28;20457;-56
2021/07/21 04:09:05;;;;;;;13.40;8.80;;;10.90;99.90;;;;;;4979675;28;20462;-55
2021/07/21 04:11:34;;;;;;;9.70;8.70;;;10.90;99.90;;;;;;4979745;28;20466;-57
2021/07/21 04:14:02;;;;;;;11.17;9.17;;;10.90;99.90;;;;;;4973282;28;20499;-50
2021/07/21 04:16:33;;;;;;;9.43;8.33;;;10.90;99.90;;;;;;4979027;28;20468;-55
2021/07/21 04:19:03;;;;;;;11.30;8.70;;;10.90;99.90;;;;;;4979780;28;20564;-53
2021/07/21 04:21:31;;;;;;;9.77;8.87;;;11.00;99.90;;;;;;4979187;28;20545;-54
2021/07/21 04:23:59;;;;;;;9.47;8.33;;;11.00;99.90;;;;;;4979986;28;20470;-54
2021/07/21 04:26:28;;;;;;;8.77;7.80;;;11.00;99.90;;;;;;4979670;28;20466;-54
2021/07/21 04:28:56;;;;;;;9.20;8.40;;;11.00;99.90;;;;;;4978828;28;20536;-54
2021/07/21 04:31:27;;;;;;;10.60;8.60;;;11.10;99.90;;;;;;4978897;28;20513;-52
2021/07/21 04:34:01;;;;;;;10.00;8.07;;;11.10;99.90;;;;;;4979712;28;20932;-56
2021/07/21 04:36:30;;;;;;;11.00;8.90;;;11.10;99.90;;;;;;4979945;28;20478;-56
2021/07/21 04:38:57;;;;;;;9.60;8.60;;;11.00;99.90;;;;;;4979060;28;20525;-55
2021/07/21 04:41:25;;;;;;;12.70;9.00;;;11.00;99.90;;;;;;4978958;28;20499;-54
2021/07/21 04:43:52;;;;;;;10.23;9.17;;;11.10;99.90;;;;;;4979463;28;20469;-55
2021/07/21 04:46:20;;;;;;;11.50;10.30;;;11.10;99.90;;;;;;4973765;28;20467;-55
2021/07/21 04:48:47;;;;;;;9.53;8.53;;;11.20;99.90;;;;;;4979110;28;20478;-54
2021/07/21 04:51:18;;;;;;;12.03;9.93;;;11.20;99.90;;;;;;4978848;28;20498;-54
2021/07/21 04:53:49;;;;;;;16.47;10.10;;;11.30;99.90;;;;;;4979729;28;20465;-57
2021/07/21 04:56:16;;;;;;;11.60;9.70;;;11.50;99.90;;;;;;4979334;28;20548;-54
2021/07/21 04:58:43;;;;;;;9.47;8.67;;;11.50;99.90;;;;;;4979215;28;20470;-56
2021/07/21 05:01:12;;;;;;;11.93;9.47;;;11.60;99.90;;;;;;4978909;28;20938;-54
2021/07/21 05:03:39;;;;;;;12.97;9.40;;;11.80;99.90;;;;;;4973034;28;20505;-56
2021/07/21 05:06:07;;;;;;;14.87;9.40;;;11.80;99.90;;;;;;4975454;28;20474;-57
2021/07/21 05:08:36;;;;;;;12.40;10.47;;;11.90;99.90;;;;;;4970732;28;20762;-56
2021/07/21 05:11:05;;;;;;;13.03;10.17;;;11.90;99.90;;;;;;4978928;28;20799;-56
2021/07/21 05:13:40;;;;;;;13.83;10.37;;;12.00;99.90;;;;;;4971816;28;20462;-57
2021/07/21 05:16:07;;;;;;;13.20;10.60;;;12.10;99.90;;;;;;4979253;28;20844;-58
2021/07/21 05:18:34;;;;;;;16.20;10.90;;;12.10;99.90;;;;;;4978791;28;20465;-58
2021/07/21 05:21:02;;;;;;;12.50;10.87;;;12.20;99.90;;;;;;4978565;28;20466;-57
2021/07/21 05:23:29;;;;;;;14.47;11.80;;;12.30;99.90;;;;;;4978853;28;20472;-57
2021/07/21 05:25:56;;;;;;;13.00;11.70;;;12.30;99.90;;;;;;4979051;28;20606;-57
2021/07/21 05:28:25;;;;;;;14.33;12.77;;;12.50;99.90;;;;;;4978054;28;20894;-55
2021/07/21 05:30:54;;;;;;;14.43;11.00;;;12.60;99.90;;;;;;4973129;28;20576;-56
2021/07/21 05:33:22;;;;;;;13.00;11.33;;;12.70;99.90;;;;;;4978226;28;20469;-57
2021/07/21 05:35:49;;;;;;;15.30;10.63;;;12.90;99.90;;;;;;4978633;28;20485;-57
2021/07/21 05:38:16;;;;;;;13.30;11.50;;;13.00;99.90;;;;;;4978591;28;20458;-58
2021/07/21 05:40:43;;;;;;;15.70;11.00;;;13.00;99.90;;;;;;4978160;28;20461;-58
2021/07/21 05:43:10;;;;;;;14.73;11.63;;;13.10;99.90;;;;;;4978896;28;20465;-55
2021/07/21 05:45:42;;;;;;;13.80;9.10;;;13.20;99.90;;;;;;4978358;28;20470;-58
2021/07/21 05:48:09;;;;;;;9.90;8.90;;;13.30;99.90;;;;;;4978398;28;20469;-58
2021/07/21 05:50:36;;;;;;;11.67;9.17;;;13.50;99.90;;;;;;4978063;28;20498;-58
2021/07/21 05:53:03;;;;;;;9.70;8.70;;;13.60;99.90;;;;;;4978471;28;20514;-58
2021/07/21 05:55:31;;;;;;;10.93;8.53;;;13.80;99.90;;;;;;4978270;28;20445;-58
2021/07/21 05:58:01;;;;;;;10.40;9.40;;;14.00;99.90;;;;;;4978303;28;20501;-59
2021/07/21 06:00:28;;;;;;;15.80;11.63;;;14.20;99.90;;;;;;4978198;28;20761;-60
2021/07/21 06:02:56;;;;;;;11.10;9.90;;;14.40;99.90;;;;;;4974050;28;20567;-60
2021/07/21 06:05:23;;;;;;;15.93;10.43;;;14.60;99.90;;;;;;4973417;28;20481;-57
2021/07/21 06:07:51;;;;;;;11.73;9.57;;;14.80;99.90;;;;;;4978087;28;20465;-60
2021/07/21 06:10:18;;;;;;;14.13;10.73;;;15.10;99.90;;;;;;4977335;28;20497;-57
2021/07/21 06:12:45;;;;;;;14.70;11.30;;;15.50;99.90;;;;;;4977838;28;20890;-57
2021/07/21 06:15:16;;;;;;;14.77;10.23;;;15.80;99.90;;;;;;4978010;28;20962;-54
2021/07/21 06:17:44;;;;;;;14.30;11.00;;;16.10;99.90;;;;;;4978292;28;20473;-51
2021/07/21 06:20:13;;;;;;;15.10;11.10;;;16.30;99.90;;;;;;4977748;28;20458;-53
2021/07/21 06:22:40;;;;;;;14.00;10.63;;;16.50;99.90;;;;;;4977803;28;20914;-55
2021/07/21 06:25:10;;;;;;;14.50;11.50;;;16.70;99.90;;;;;;4977914;28;20470;-54
2021/07/21 06:27:38;;;;;;;16.10;12.23;;;17.10;99.90;;;;;;4978008;28;20465;-53
2021/07/21 06:30:09;;;;;;;12.90;10.63;;;17.50;99.90;;;;;;4977532;28;20614;-57
2021/07/21 06:32:38;;;;;;;20.57;11.40;;;17.80;99.90;;;;;;4977743;28;20474;-56
2021/07/21 06:35:07;;;;;;;19.20;12.20;;;18.10;99.90;;;;;;4977974;28;20552;-57
2021/07/21 06:37:36;;;;;;;16.77;10.87;;;18.30;99.90;;;;;;4978184;28;20477;-57
2021/07/21 06:40:04;;;;;;;17.90;10.20;;;18.50;99.90;;;;;;4977510;28;20462;-56
2021/07/21 06:42:31;;;;;;;15.97;10.93;;;18.80;99.90;;;;;;4978273;28;20462;-56
2021/07/21 06:45:00;;;;;;;16.50;10.70;;;19.00;99.90;;;;;;4977947;28;20473;-54
2021/07/21 06:47:28;;;;;;;15.20;9.83;;;19.20;99.90;;;;;;4972468;28;20501;-54
2021/07/21 06:49:57;;;;;;;14.77;11.17;;;19.50;99.90;;;;;;4977695;28;20835;-53
2021/07/21 06:52:24;;;;;;;14.67;10.23;;;19.70;99.90;;;;;;4977953;28;20466;-52
2021/07/21 06:54:57;;;;;;;15.70;10.43;;;20.00;99.90;;;;;;4981303;28;20492;-54
2021/07/21 06:57:24;;;;;;;20.57;11.27;;;20.30;99.90;;;;;;4981546;28;20524;-50
2021/07/21 06:59:51;;;;;;;12.70;9.57;;;20.50;99.90;;;;;;4981148;28;20473;-50
2021/07/21 07:02:20;;;;;;;13.47;9.87;;;20.80;99.90;;;;;;4981046;28;20763;-53
2021/07/21 07:04:47;;;;;;;17.70;10.60;;;21.00;99.10;;;;;;4972806;28;20477;-55
2021/07/21 07:07:17;;;;;;;10.43;9.27;;;21.40;98.50;;;;;;4981028;28;20465;-54
2021/07/21 07:09:44;;;;;;;12.10;8.80;;;21.70;96.40;;;;;;4980799;28;20465;-54
2021/07/21 07:12:13;;;;;;;12.87;9.33;;;21.90;90.80;;;;;;4981389;28;20552;-53
2021/07/21 07:14:42;;;;;;;14.37;9.87;;;22.10;94.10;;;;;;4974810;28;20583;-56
2021/07/21 07:17:09;;;;;;;11.50;8.30;;;22.40;93.00;;;;;;4980481;28;20540;-54
2021/07/21 07:19:36;;;;;;;16.53;9.50;;;22.50;87.50;;;;;;4980660;28;20524;-53
2021/07/21 07:22:04;;;;;;;16.17;10.03;;;22.80;78.80;;;;;;4980375;28;20458;-54
2021/07/21 07:24:34;;;;;;;10.10;8.30;;;23.00;82.80;;;;;;4981085;28;20470;-50
2021/07/21 07:27:02;;;;;;;17.57;9.00;;;23.30;78.00;;;;;;4980698;28;20466;-53
2021/07/21 07:29:31;;;;;;;12.67;8.20;;;23.50;75.60;;;;;;4980839;28;20523;-52
2021/07/21 07:32:00;;;;;;;9.93;8.70;;;23.80;73.40;;;;;;4980797;28;20556;-57
2021/07/21 07:34:27;;;;;;;18.37;8.07;;;23.60;69.20;;;;;;4980973;28;20466;-54
2021/07/21 07:36:56;;;;;;;10.40;9.17;;;23.80;69.70;;;;;;4980491;28;20473;-56
2021/07/21 07:39:23;;;;;;;9.00;7.93;;;24.20;69.10;;;;;;4980415;28;20469;-53
2021/07/21 07:41:50;;;;;;;10.13;8.70;;;24.00;68.50;;;;;;4980387;28;20465;-51
2021/07/21 07:44:18;;;;;;;7.17;6.47;;;24.20;65.50;;;;;;4980683;28;20473;-54
2021/07/21 07:46:46;;;;;;;10.63;7.60;;;24.30;66.50;;;;;;4974748;28;20507;-53
2021/07/21 07:49:13;;;;;;;9.00;7.80;;;24.70;63.80;;;;;;4980469;28;20466;-53
2021/07/21 07:51:41;;;;;;;9.47;7.90;;;23.80;59.90;;;;;;4979686;28;20895;-56
2021/07/21 07:54:08;;;;;;;9.53;8.03;;;23.60;62.40;;;;;;4980297;28;20882;-50
2021/07/21 07:56:35;;;;;;;9.97;7.37;;;24.00;65.00;;;;;;4972256;28;20490;-56
2021/07/21 07:59:02;;;;;;;8.63;7.83;;;24.70;60.10;;;;;;4980102;28;20465;-56
2021/07/21 08:01:32;;;;;;;11.50;7.63;;;24.60;59.70;;;;;;4980016;28;20557;-56
2021/07/21 08:04:06;;;;;;;8.77;7.80;;;24.30;60.50;;;;;;4971937;28;20473;-54
2021/07/21 08:06:34;;;;;;;8.17;7.37;;;24.10;61.30;;;;;;4977952;28;20761;-55
2021/07/21 08:09:12;;;;;;;8.10;7.40;;;24.10;59.00;;;;;;4979628;28;20461;-52
2021/07/21 08:11:40;;;;;;;11.30;7.90;;;24.10;59.60;;;;;;4979116;28;20520;-55
2021/07/21 08:14:09;;;;;;;8.37;7.60;;;24.20;59.20;;;;;;4979732;28;20462;-54
2021/07/21 08:16:36;;;;;;;7.27;6.67;;;23.90;59.00;;;;;;4978949;28;20473;-56
2021/07/21 08:19:05;;;;;;;8.23;7.43;;;24.10;60.10;;;;;;4979651;28;20520;-57
2021/07/21 08:21:32;;;;;;;8.00;7.20;;;24.40;58.00;;;;;;4979550;28;20520;-53
2021/07/21 08:23:59;;;;;;;7.70;7.00;;;24.40;56.60;;;;;;4980000;28;20961;-52
2021/07/21 09:03:50;;;;;;;7.20;6.60;;;27.00;51.00;;;;;;5186147;23;20506;-56
2021/07/21 09:06:17;;;;;;;7.40;6.60;;;27.60;52.20;;;;;;4959909;28;20475;-58
2021/07/21 09:08:44;;;;;;;8.20;7.50;;;27.10;50.90;;;;;;4978679;28;20454;-52
2021/07/21 09:11:12;;;;;;;7.87;7.20;;;27.70;49.90;;;;;;4978584;28;20551;-54
2021/07/21 09:13:41;;;;;;;7.70;7.10;;;27.90;48.40;;;;;;4977533;28;20466;-58
2021/07/21 09:16:08;;;;;;;7.83;6.90;;;27.30;48.80;;;;;;4993162;28;20461;-56
2021/07/21 09:18:52;;;;;;;7.93;7.30;;;26.90;49.40;;;;;;4978691;28;20561;-58
2021/07/21 09:21:22;;;;;;;8.00;7.20;;;26.30;50.50;;;;;;4986095;28;20898;-56
2021/07/21 09:23:51;;;;;;;8.00;7.30;;;25.80;50.00;;;;;;4959490;29;20471;-58
2021/07/21 09:26:21;;;;;;;7.80;7.10;;;25.10;51.20;;;;;;4959440;29;20560;-58
2021/07/21 09:28:50;;;;;;;7.70;7.17;;;24.10;53.70;;;;;;4966093;28;20701;-58
2021/07/21 09:31:29;;;;;;;12.47;8.33;;;24.10;54.00;;;;;;4997768;28;20591;-55
2021/07/21 09:33:59;;;;;;;8.63;7.93;;;24.70;54.20;;;;;;4997689;28;20465;-58
2021/07/21 09:36:26;;;;;;;8.67;7.97;;;24.90;53.90;;;;;;4998093;28;20465;-53
2021/07/21 09:39:01;;;;;;;8.80;7.90;;;25.40;54.40;;;;;;4986267;28;20518;-54
2021/07/21 09:41:28;;;;;;;8.60;7.90;;;25.70;52.40;;;;;;4959349;29;20466;-55
2021/07/21 10:22:56;;;;;;;9.23;8.30;;;25.40;52.10;;;;;;5072264;23;20560;-58
2021/07/21 10:25:24;;;;;;;10.30;9.23;;;25.10;52.60;;;;;;4976906;28;20473;-59
2021/07/21 10:27:51;;;;;;;10.03;9.00;;;24.70;51.40;;;;;;4978529;28;20564;-57
2021/07/21 10:30:18;;;;;;;8.40;7.70;;;24.80;51.90;;;;;;4980257;28;20528;-58
2021/07/21 10:32:46;;;;;;;9.50;8.57;;;24.80;52.90;;;;;;4981788;28;20566;-57
2021/07/21 10:35:14;;;;;;;11.43;10.40;;;24.70;52.30;;;;;;4982056;28;20520;-57
2021/07/21 10:37:42;;;;;;;9.60;8.70;;;24.70;52.00;;;;;;4981106;28;20449;-58
2021/07/21 10:40:14;;;;;;;9.07;8.00;;;25.40;53.60;;;;;;4981291;28;20784;-57
2021/07/21 10:42:42;;;;;;;9.67;8.87;;;26.60;51.20;;;;;;4980438;28;20476;-54
2021/07/21 10:45:16;;;;;;;10.03;9.13;;;27.60;48.80;;;;;;4981704;28;20469;-56
2021/07/21 11:28:56;;;;;;;8.37;7.67;;;26.10;50.30;;;;;;4915840;29;20546;-55
2021/07/21 11:31:47;;;;;;;9.60;8.70;;;26.00;50.60;;;;;;4923605;29;20770;-57
2021/07/21 11:34:14;;;;;;;9.53;8.70;;;26.20;49.90;;;;;;4922139;29;20536;-56
2021/07/21 11:36:57;;;;;;;10.30;9.40;;;26.30;49.40;;;;;;4923033;29;20464;-58
2021/07/21 11:39:39;;;;;;;9.10;8.30;;;26.40;48.80;;;;;;4922168;29;20559;-57
2021/07/21 11:42:26;;;;;;;10.00;9.00;;;26.70;48.90;;;;;;4922729;29;20519;-58
2021/07/21 11:45:11;;;;;;;12.30;9.47;;;27.10;47.80;;;;;;4923539;29;20913;-57
2021/07/21 11:47:41;;;;;;;10.67;9.67;;;26.50;49.20;;;;;;4922636;29;20472;-59
2021/07/21 11:50:10;;;;;;;9.50;8.73;;;25.90;49.50;;;;;;4922881;29;20464;-63
2021/07/21 11:52:38;;;;;;;10.67;9.77;;;25.90;48.80;;;;;;4922739;29;20496;-57
2021/07/21 11:55:06;;;;;;;9.73;8.93;;;27.00;49.50;;;;;;4922931;29;20472;-58
2021/07/21 11:57:34;;;;;;;10.63;9.63;;;27.60;48.00;;;;;;4922154;29;20464;-58
2021/07/21 12:00:04;;;;;;;10.20;9.40;;;27.40;46.60;;;;;;4922801;29;20898;-56
2021/07/21 12:02:34;;;;;;;10.27;9.37;;;27.50;47.10;;;;;;4922924;29;20748;-57
2021/07/21 12:05:06;;;;;;;10.00;9.10;;;27.60;45.40;;;;;;4914239;29;20472;-56
2021/07/21 12:07:36;;;;;;;9.73;8.83;;;28.10;46.60;;;;;;4922944;29;20746;-58
2021/07/21 12:10:18;;;;;;;9.63;8.80;;;28.00;46.60;;;;;;4921896;29;20469;-57
2021/07/21 12:52:15;;;;;;;8.13;7.43;;;27.90;48.90;;;;;;3641191;23;20485;-57
2021/07/21 12:54:48;;;;;;;8.60;7.80;;;28.60;44.40;;;;;;4979473;28;20466;-57
2021/07/21 12:57:15;;;;;;;7.10;6.50;;;27.60;46.20;;;;;;4979187;28;20746;-57
2021/07/21 12:59:42;;;;;;;8.70;8.00;;;27.60;46.80;;;;;;4979319;28;20470;-53
2021/07/21 13:02:15;;;;;;;7.90;7.20;;;27.30;47.70;;;;;;4978332;28;20469;-56
2021/07/21 13:04:43;;;;;;;10.10;8.03;;;26.80;47.70;;;;;;4970035;28;20501;-56
2021/07/21 13:07:10;;;;;;;7.60;6.90;;;26.80;47.90;;;;;;4974977;28;20463;-58
2021/07/21 13:09:40;;;;;;;8.60;7.80;;;26.10;47.90;;;;;;4962977;28;20459;-57
2021/07/21 13:12:17;;;;;;;8.00;7.30;;;26.20;48.50;;;;;;4977658;28;20482;-56
2021/07/21 13:51:56;;;;;;;7.27;6.67;;;25.40;50.80;;;;;;4215544;23;20845;-55
2021/07/21 14:28:13;;;;;;;7.00;6.40;;;26.70;48.70;;;;;;4222192;23;20732;-58
2021/07/21 14:30:40;;;;;;;7.43;6.93;;;26.70;49.50;;;;;;4984931;28;20473;-58
2021/07/21 14:33:07;;;;;;;6.90;6.30;;;27.40;48.90;;;;;;4984546;28;20497;-58
2021/07/21 14:35:35;;;;;;;8.20;7.50;;;26.30;48.80;;;;;;4983832;28;20472;-59
2021/07/21 14:38:02;;;;;;;7.57;6.50;;;26.40;51.30;;;;;;4983264;28;20526;-57
2021/07/21 14:40:29;;;;;;;7.83;7.03;;;26.20;50.80;;;;;;4983423;28;20465;-57
2021/07/21 14:42:59;;;;;;;7.47;6.93;;;25.80;51.20;;;;;;4986306;28;20465;-56
2021/07/21 14:45:27;;;;;;;8.17;7.37;;;25.10;52.50;;;;;;4983216;28;20469;-58
2021/07/21 14:47:56;;;;;;;8.50;7.80;;;24.90;53.40;;;;;;4978944;28;20465;-58
2021/07/21 14:50:24;;;;;;;7.67;6.97;;;24.40;53.60;;;;;;4983979;28;20564;-56
2021/07/21 14:52:54;;;;;;;12.10;6.90;;;24.50;55.00;;;;;;4983949;28;20540;-58
2021/07/21 14:55:25;;;;;;;9.17;7.40;;;24.00;55.00;;;;;;4984225;28;20883;-57
2021/07/21 14:57:53;;;;;;;7.00;6.43;;;24.00;55.30;;;;;;4983859;28;20511;-57
2021/07/21 15:00:21;;;;;;;7.83;7.10;;;24.30;55.30;;;;;;4983961;28;20536;-58
2021/07/21 15:02:49;;;;;;;8.50;7.57;;;24.30;54.90;;;;;;4981001;28;20883;-58
2021/07/21 15:05:16;;;;;;;8.57;7.77;;;24.50;55.10;;;;;;4978936;28;20474;-57
2021/07/21 15:46:47;;;;;;;9.37;8.57;;;24.90;55.70;;;;;;4959175;29;20450;-59
2021/07/21 15:49:19;;;;;;;8.90;8.00;;;25.40;54.80;;;;;;4957729;29;20471;-57
2021/07/21 15:51:49;;;;;;;9.70;8.83;;;25.30;54.90;;;;;;4959151;28;20793;-58
2021/07/21 15:54:16;;;;;;;10.97;10.00;;;25.20;55.20;;;;;;4959939;29;20767;-56
2021/07/21 15:56:49;;;;;;;18.53;17.03;;;25.00;55.10;;;;;;4959373;29;20480;-56
2021/07/21 16:36:29;;;;;;;10.87;9.97;;;24.80;54.90;;;;;;4600015;23;20482;-56
2021/07/21 16:38:56;;;;;;;11.03;10.13;;;25.10;55.50;;;;;;4979015;28;20493;-57
2021/07/21 16:41:25;;;;;;;10.43;9.57;;;25.20;55.50;;;;;;4979601;28;20470;-56
2021/07/21 16:43:52;;;;;;;10.53;9.50;;;24.90;54.10;;;;;;4979257;28;20977;-56
2021/07/21 16:46:20;;;;;;;10.33;9.40;;;24.80;54.70;;;;;;4979153;28;20466;-57
2021/07/21 16:48:47;;;;;;;11.30;9.57;;;24.90;55.30;;;;;;4979273;28;20474;-58
2021/07/21 16:51:14;;;;;;;12.40;9.67;;;24.70;55.80;;;;;;4979253;28;20477;-58
2021/07/21 16:53:45;;;;;;;11.17;10.07;;;24.50;55.30;;;;;;4978963;28;20950;-57
2021/07/21 16:56:12;;;;;;;9.67;8.83;;;24.30;56.20;;;;;;4979234;28;20556;-56
2021/07/21 16:58:42;;;;;;;11.43;9.57;;;24.50;57.30;;;;;;4978825;28;20462;-57
2021/07/21 17:01:10;;;;;;;11.33;10.43;;;24.60;56.90;;;;;;4978748;28;20470;-57
2021/07/21 17:03:40;;;;;;;11.27;10.07;;;24.70;57.60;;;;;;4971553;28;20533;-58
2021/07/21 17:06:07;;;;;;;14.10;9.50;;;25.00;57.60;;;;;;4975855;28;20482;-54
2021/07/21 17:47:03;;;;;;;13.80;12.50;;;23.80;58.30;;;;;;4401432;23;20941;-55
2021/07/21 17:49:30;;;;;;;12.00;10.90;;;23.70;58.50;;;;;;4978962;28;20473;-54
2021/07/21 17:52:07;;;;;;;12.63;11.47;;;23.50;58.90;;;;;;4983427;28;20494;-58
2021/07/21 18:29:03;;;;;;;11.53;10.43;;;22.80;61.00;;;;;;3836251;23;20504;-53
2021/07/21 18:31:31;;;;;;;11.60;10.23;;;22.60;61.40;;;;;;4977076;28;20477;-57
2021/07/21 18:33:58;;;;;;;14.47;11.60;;;22.50;61.40;;;;;;4978350;28;20501;-57
2021/07/21 18:36:25;;;;;;;11.10;10.00;;;22.20;62.50;;;;;;4977478;28;20564;-53
2021/07/21 18:38:52;;;;;;;12.23;11.23;;;22.10;62.90;;;;;;4977871;28;20816;-57
2021/07/21 18:41:19;;;;;;;11.17;10.03;;;22.00;63.40;;;;;;4979171;28;20470;-56
2021/07/21 18:43:46;;;;;;;11.20;9.33;;;21.90;64.10;;;;;;4977445;28;20461;-54
2021/07/21 18:46:14;;;;;;;11.53;10.43;;;21.90;64.50;;;;;;4977404;28;20966;-54
2021/07/21 18:48:44;;;;;;;12.87;10.00;;;21.80;65.00;;;;;;4978337;28;20478;-55
2021/07/21 18:51:12;;;;;;;11.67;10.47;;;21.80;65.20;;;;;;4980987;28;20465;-55
2021/07/21 18:53:47;;;;;;;10.20;9.27;;;21.70;66.10;;;;;;4981682;28;20574;-54
2021/07/21 18:56:29;;;;;;;10.80;9.90;;;21.60;66.70;;;;;;4981273;28;20952;-54
2021/07/21 18:58:59;;;;;;;12.17;10.97;;;21.50;68.10;;;;;;4981248;28;20466;-55
2021/07/21 19:01:31;;;;;;;10.47;9.50;;;21.40;69.80;;;;;;4980583;28;20469;-55
2021/07/21 19:03:58;;;;;;;10.80;9.77;;;21.40;72.60;;;;;;4970946;28;20484;-56
2021/07/21 19:06:26;;;;;;;13.33;11.77;;;21.40;72.90;;;;;;4980471;28;20457;-54
2021/07/21 19:08:53;;;;;;;11.77;10.77;;;21.30;74.70;;;;;;4980234;28;20465;-55
2021/07/21 19:11:20;;;;;;;11.17;9.97;;;21.20;75.10;;;;;;4980771;28;20462;-56
2021/07/21 19:13:48;;;;;;;12.70;11.40;;;21.10;77.70;;;;;;4980649;28;20500;-57
2021/07/21 19:16:15;;;;;;;11.43;10.33;;;21.00;80.70;;;;;;4980588;28;20805;-57
2021/07/21 19:18:44;;;;;;;12.27;10.77;;;20.90;84.00;;;;;;4981179;28;20871;-57
2021/07/21 19:21:14;;;;;;;12.23;11.00;;;20.90;86.10;;;;;;4980622;28;20899;-56
2021/07/21 19:23:41;;;;;;;11.63;10.53;;;20.80;90.00;;;;;;4981270;28;20472;-53
2021/07/21 19:26:08;;;;;;;12.13;11.03;;;20.70;91.60;;;;;;4980905;28;20493;-57
2021/07/21 19:28:35;;;;;;;12.10;11.07;;;20.60;93.40;;;;;;4980564;28;20494;-57
2021/07/21 19:31:05;;;;;;;11.57;10.40;;;20.50;93.70;;;;;;4980433;28;20496;-57
2021/07/21 19:33:35;;;;;;;11.37;10.37;;;20.50;93.30;;;;;;4980688;28;20498;-56
2021/07/21 19:36:09;;;;;;;11.60;10.47;;;20.40;93.00;;;;;;4980402;28;20466;-55
2021/07/21 19:38:40;;;;;;;14.23;9.57;;;20.30;93.20;;;;;;4980327;28;20891;-56
2021/07/21 19:41:17;;;;;;;11.63;9.60;;;20.30;93.90;;;;;;4979931;28;20568;-51
2021/07/21 19:43:46;;;;;;;11.33;10.13;;;20.20;94.60;;;;;;4980328;28;20516;-57
2021/07/21 19:46:13;;;;;;;12.50;11.20;;;20.10;96.80;;;;;;4980618;28;20482;-51
2021/07/21 19:48:41;;;;;;;11.87;10.73;;;20.00;99.50;;;;;;4980681;28;20465;-50
2021/07/21 19:51:13;;;;;;;12.60;11.30;;;19.90;99.90;;;;;;4980777;28;20525;-53